Time;durP1;ratioP1;P1;durP2;ratioP2;P2;SDS_P1;SDS_P2;PMS_P1;PMS_P2;Temp;Humidity;BMP_temperature;BMP_pressure;BME280_temperature;BME280_humidity;BME280_pressure;Samples;Min_cycle;Max_cycle;Signal;HPM_P1;HPM_P2
2020/12/29 00:02:01;;;;;;;26.98;15.27;;;;;;;0.18;100.00;97659.59;5009495;28;20037;-72
2020/12/29 00:04:27;;;;;;;30.43;16.63;;;;;;;0.17;100.00;97666.53;5006348;28;20131;-72
2020/12/29 00:06:55;;;;;;;28.33;16.30;;;;;;;0.17;100.00;97663.94;4992335;28;20037;-72
2020/12/29 00:09:23;;;;;;;28.30;15.73;;;;;;;0.17;100.00;97668.25;5006134;28;20081;-72
2020/12/29 00:11:50;;;;;;;26.07;15.67;;;;;;;0.17;100.00;97670.84;5005216;28;20069;-72
2020/12/29 00:14:19;;;;;;;27.20;15.53;;;;;;;0.18;100.00;97670.84;5040870;28;20045;-72
2020/12/29 00:16:45;;;;;;;24.30;13.20;;;;;;;0.17;100.00;97666.53;4999916;28;20073;-72
2020/12/29 00:19:18;;;;;;;26.33;15.33;;;;;;;0.17;100.00;97665.66;5009154;28;20046;-72
2020/12/29 00:21:44;;;;;;;27.53;16.80;;;;;;;0.17;100.00;97660.47;5043836;28;20073;-71
2020/12/29 00:24:12;;;;;;;26.40;15.37;;;;;;;0.16;100.00;97654.44;5005423;28;20129;-71
2020/12/29 00:26:58;;;;;;;29.13;15.07;;;;;;;0.13;100.00;97651.06;5004476;28;20038;-71
2020/12/29 00:29:24;;;;;;;34.07;17.37;;;;;;;0.12;100.00;97662.34;5005132;28;20038;-71
2020/12/29 00:31:51;;;;;;;29.63;16.67;;;;;;;0.09;100.00;97655.50;5022207;28;20034;-71
2020/12/29 00:34:17;;;;;;;30.30;17.70;;;;;;;0.08;100.00;97658.97;5018411;28;20049;-71
2020/12/29 00:36:43;;;;;;;29.80;16.30;;;;;;;0.06;100.00;97665.94;5005388;28;20085;-71
2020/12/29 00:39:09;;;;;;;24.47;14.63;;;;;;;0.02;100.00;97658.31;4987960;28;20042;-71
2020/12/29 00:41:35;;;;;;;23.53;14.87;;;;;;;0.01;100.00;97662.66;5007640;28;20693;-71
2020/12/29 00:44:01;;;;;;;25.47;15.50;;;;;;;-0.03;100.00;97663.59;5006275;28;20042;-73
2020/12/29 00:46:27;;;;;;;29.40;16.07;;;;;;;-0.05;100.00;97662.78;5004707;28;20842;-72
2020/12/29 00:48:54;;;;;;;25.60;15.00;;;;;;;-0.08;100.00;97660.28;5038764;28;20038;-73
2020/12/29 00:51:21;;;;;;;25.20;14.50;;;;;;;-0.09;100.00;97662.00;5027710;28;20034;-73
2020/12/29 00:53:47;;;;;;;30.53;18.30;;;;;;;-0.13;100.00;97660.41;5005065;28;20116;-73
2020/12/29 00:56:14;;;;;;;29.03;16.97;;;;;;;-0.15;100.00;97662.19;5004667;28;20121;-71
2020/12/29 00:58:40;;;;;;;30.97;16.83;;;;;;;-0.18;100.00;97664.84;5001868;28;20053;-71
2020/12/29 01:01:08;;;;;;;28.00;15.30;;;;;;;-0.20;100.00;97665.78;5012655;28;20046;-71
2020/12/29 01:03:37;;;;;;;32.90;17.50;;;;;;;-0.23;100.00;97673.66;5002542;28;20054;-71
2020/12/29 01:06:04;;;;;;;28.50;16.03;;;;;;;-0.26;100.00;97660.75;5007464;28;20037;-71
2020/12/29 01:08:30;;;;;;;26.47;16.63;;;;;;;-0.26;100.00;97655.56;5036889;28;20038;-70
2020/12/29 01:10:57;;;;;;;29.90;16.20;;;;;;;-0.30;100.00;97655.63;5004407;28;20096;-71
2020/12/29 01:13:23;;;;;;;28.37;15.70;;;;;;;-0.30;100.00;97653.03;5004187;28;20049;-70
2020/12/29 01:15:51;;;;;;;32.53;16.37;;;;;;;-0.30;100.00;97657.38;4985983;28;20109;-70
2020/12/29 01:18:18;;;;;;;30.33;17.70;;;;;;;-0.31;100.00;97659.13;5003346;28;20030;-70
2020/12/29 01:20:44;;;;;;;30.30;15.83;;;;;;;-0.31;100.00;97661.72;5004290;28;20758;-70
2020/12/29 01:23:11;;;;;;;33.53;17.83;;;;;;;-0.34;100.00;97661.81;5004345;28;20053;-70
2020/12/29 01:25:41;;;;;;;28.90;16.10;;;;;;;-0.35;100.00;97669.59;4998264;28;20046;-70
2020/12/29 01:28:11;;;;;;;30.30;15.97;;;;;;;-0.38;100.00;97667.94;4996146;28;20410;-71
2020/12/29 01:30:37;;;;;;;33.13;18.20;;;;;;;-0.37;100.00;97668.78;4986418;28;20570;-71
2020/12/29 01:33:04;;;;;;;33.73;16.80;;;;;;;-0.37;100.00;97679.16;5011682;28;20042;-71
2020/12/29 01:35:30;;;;;;;27.43;15.13;;;;;;;-0.40;100.00;97674.91;4998377;28;20034;-70
2020/12/29 01:37:57;;;;;;;30.03;17.30;;;;;;;-0.41;100.00;97681.00;5032904;28;20535;-71
2020/12/29 01:40:23;;;;;;;30.30;17.50;;;;;;;-0.41;100.00;97690.53;5028628;28;20088;-71
2020/12/29 01:42:49;;;;;;;31.23;16.17;;;;;;;-0.42;100.00;97694.88;5004990;28;20095;-71
2020/12/29 01:45:16;;;;;;;32.63;18.70;;;;;;;-0.42;100.00;97696.56;5034779;28;20427;-71
2020/12/29 01:47:43;;;;;;;36.00;20.43;;;;;;;-0.43;100.00;97698.31;5004116;28;20686;-71
2020/12/29 01:50:11;;;;;;;36.10;18.27;;;;;;;-0.42;100.00;97699.16;5037038;28;20065;-71
2020/12/29 01:52:37;;;;;;;26.13;14.97;;;;;;;-0.43;100.00;97687.94;4998673;28;20041;-69
2020/12/29 01:55:08;;;;;;;31.97;17.70;;;;;;;-0.42;100.00;97686.19;5012787;28;20054;-70
2020/12/29 01:57:35;;;;;;;31.60;18.10;;;;;;;-0.43;100.00;97687.94;5007735;28;20048;-70
2020/12/29 02:00:11;;;;;;;28.27;16.97;;;;;;;-0.44;100.00;97690.56;4989062;28;20120;-71
2020/12/29 02:02:40;;;;;;;30.63;16.63;;;;;;;-0.45;100.00;97686.28;4988125;28;20132;-71
2020/12/29 02:05:07;;;;;;;31.57;16.57;;;;;;;-0.44;100.00;97686.25;5019947;28;20545;-74
2020/12/29 02:07:34;;;;;;;32.63;19.07;;;;;;;-0.44;100.00;97667.25;4999873;28;20065;-73
2020/12/29 02:10:00;;;;;;;31.50;17.00;;;;;;;-0.44;100.00;97651.69;5020190;28;20065;-73
2020/12/29 02:12:28;;;;;;;30.90;17.67;;;;;;;-0.45;100.00;97652.56;4987850;28;20042;-73
2020/12/29 02:14:55;;;;;;;35.00;17.90;;;;;;;-0.46;100.00;97654.31;4998419;28;20049;-73
2020/12/29 02:17:21;;;;;;;34.67;18.30;;;;;;;-0.47;100.00;97656.94;4989827;28;20597;-73
2020/12/29 02:19:48;;;;;;;34.90;18.30;;;;;;;-0.47;100.00;97649.16;5008557;28;20038;-75
2020/12/29 02:22:21;;;;;;;29.37;17.10;;;;;;;-0.48;100.00;97653.50;4999478;28;20039;-73
2020/12/29 02:24:53;;;;;;;37.35;18.83;;;;;;;-0.47;100.00;97659.53;4997886;28;20053;-78
2020/12/29 02:27:20;;;;;;;32.97;18.67;;;;;;;-0.45;100.00;97673.31;4997402;28;20046;-72
2020/12/29 02:29:46;;;;;;;32.77;17.97;;;;;;;-0.47;100.00;97672.50;5008879;28;20038;-75
2020/12/29 02:32:12;;;;;;;40.77;21.13;;;;;;;-0.48;100.00;97676.84;4990413;28;20053;-72
2020/12/29 02:34:39;;;;;;;36.73;19.23;;;;;;;-0.46;100.00;97684.59;5003145;28;20762;-72
2020/12/29 02:37:09;;;;;;;33.13;18.03;;;;;;;-0.45;100.00;97686.28;5021516;28;20037;-76
2020/12/29 02:39:38;;;;;;;33.77;18.67;;;;;;;-0.45;100.00;97684.53;5034062;28;20030;-73
2020/12/29 02:42:04;;;;;;;39.30;19.97;;;;;;;-0.44;100.00;97681.06;5007929;28;20515;-73
2020/12/29 02:44:30;;;;;;;32.53;17.93;;;;;;;-0.43;100.00;97671.53;4989523;28;20096;-76
2020/12/29 02:46:56;;;;;;;32.43;17.37;;;;;;;-0.42;100.00;97681.00;4997529;28;20041;-73
2020/12/29 02:49:23;;;;;;;35.10;20.17;;;;;;;-0.40;100.00;97676.66;5003250;28;20116;-75
2020/12/29 02:51:49;;;;;;;35.37;19.90;;;;;;;-0.41;100.00;97664.59;5022832;28;20764;-72
2020/12/29 02:54:15;;;;;;;35.73;19.37;;;;;;;-0.40;100.00;97658.50;4998821;28;20050;-72
2020/12/29 02:56:42;;;;;;;34.37;19.93;;;;;;;-0.41;100.00;97668.03;4987141;28;20034;-75
2020/12/29 02:59:11;;;;;;;34.83;18.40;;;;;;;-0.40;100.00;97669.72;5002777;28;20045;-73
2020/12/29 03:01:38;;;;;;;37.70;18.70;;;;;;;-0.39;100.00;97657.63;5008105;28;20045;-76
2020/12/29 03:04:04;;;;;;;33.50;17.93;;;;;;;-0.40;100.00;97655.91;5025313;28;20066;-77
2020/12/29 03:06:30;;;;;;;36.00;18.60;;;;;;;-0.40;100.00;97642.94;5007346;28;20068;-72
2020/12/29 03:08:56;;;;;;;34.43;17.83;;;;;;;-0.37;100.00;97638.53;5003741;28;20084;-72
2020/12/29 03:11:30;;;;;;;35.43;19.83;;;;;;;-0.39;100.00;97637.72;5038653;28;20037;-74
2020/12/29 03:13:58;;;;;;;31.45;17.17;;;;;;;-0.40;100.00;97635.16;5039806;28;20042;-72
2020/12/29 03:16:25;;;;;;;34.40;19.70;;;;;;;-0.42;100.00;97629.13;5074558;22;20024;-73
2020/12/29 03:18:51;;;;;;;35.43;18.63;;;;;;;-0.44;100.00;97631.78;5006097;28;20076;-73
2020/12/29 03:21:18;;;;;;;31.63;17.03;;;;;;;-0.45;100.00;97639.59;5006159;28;20041;-73
2020/12/29 03:23:44;;;;;;;34.20;17.83;;;;;;;-0.45;100.00;97652.56;4978638;28;20476;-73
2020/12/29 03:26:10;;;;;;;33.03;18.90;;;;;;;-0.44;100.00;97662.91;5001898;28;20143;-73
2020/12/29 03:28:37;;;;;;;32.47;17.93;;;;;;;-0.43;100.00;97658.56;4974824;28;20177;-73
2020/12/29 03:31:06;;;;;;;38.73;19.77;;;;;;;-0.42;100.00;97658.56;4990301;28;20097;-73
2020/12/29 03:33:33;;;;;;;33.97;18.10;;;;;;;-0.43;100.00;97651.63;5002217;28;20038;-73
2020/12/29 03:36:00;;;;;;;34.37;18.23;;;;;;;-0.41;100.00;97651.63;4997129;28;20626;-73
2020/12/29 03:38:26;;;;;;;36.60;19.67;;;;;;;-0.40;100.00;97656.75;4992938;28;20050;-73
2020/12/29 03:40:52;;;;;;;36.20;18.57;;;;;;;-0.39;100.00;97660.22;4993199;28;20644;-73
2020/12/29 03:43:19;;;;;;;34.83;20.07;;;;;;;-0.39;100.00;97657.63;4996076;28;20042;-73
2020/12/29 03:45:46;;;;;;;34.93;18.07;;;;;;;-0.39;100.00;97668.84;4991127;28;20510;-73
2020/12/29 03:48:14;;;;;;;35.90;20.90;;;;;;;-0.39;100.00;97674.03;5003431;28;20086;-73
2020/12/29 03:50:41;;;;;;;33.17;18.30;;;;;;;-0.36;100.00;97663.56;4982199;28;20133;-73
2020/12/29 03:53:07;;;;;;;38.00;20.47;;;;;;;-0.37;100.00;97659.28;4995251;28;20061;-73
2020/12/29 03:55:33;;;;;;;34.37;17.47;;;;;;;-0.44;100.00;97656.88;4998712;28;20742;-73
2020/12/29 03:57:59;;;;;;;41.50;20.73;;;;;;;-0.51;100.00;97648.38;4996531;28;20491;-73
2020/12/29 04:00:26;;;;;;;36.27;19.80;;;;;;;-0.58;100.00;97655.47;4993992;28;20034;-73
2020/12/29 04:02:52;;;;;;;33.20;17.87;;;;;;;-0.64;100.00;97649.59;4982522;28;20069;-72
2020/12/29 04:05:18;;;;;;;41.43;21.53;;;;;;;-0.69;100.00;97651.41;4996900;28;20104;-73
2020/12/29 04:07:45;;;;;;;34.90;19.77;;;;;;;-0.72;100.00;97660.13;5005188;28;20041;-73
2020/12/29 04:10:11;;;;;;;37.10;21.60;;;;;;;-0.65;100.00;97653.91;5002131;28;20062;-73
2020/12/29 04:12:37;;;;;;;38.70;20.60;;;;;;;-0.66;100.00;97634.06;4995733;28;20074;-73
2020/12/29 04:15:07;;;;;;;36.33;21.07;;;;;;;-0.70;100.00;97644.53;4999505;28;20088;-73
2020/12/29 04:17:38;;;;;;;39.23;20.70;;;;;;;-0.76;100.00;97645.53;4993473;28;20043;-73
2020/12/29 04:20:07;;;;;;;45.60;22.73;;;;;;;-0.74;100.00;97653.28;5003352;28;20061;-73
2020/12/29 04:22:35;;;;;;;42.13;21.33;;;;;;;-0.75;100.00;97657.63;4991317;28;20047;-73
2020/12/29 04:25:03;;;;;;;38.13;19.70;;;;;;;-0.77;100.00;97661.97;4994116;28;20038;-73
2020/12/29 04:27:29;;;;;;;39.60;21.20;;;;;;;-0.74;100.00;97658.47;4999029;28;20045;-73
2020/12/29 04:29:56;;;;;;;41.70;20.27;;;;;;;-0.71;100.00;97655.78;4984139;28;20619;-72
2020/12/29 04:32:22;;;;;;;41.47;21.27;;;;;;;-0.69;100.00;97654.84;4999969;28;20439;-73
2020/12/29 04:34:48;;;;;;;38.90;20.67;;;;;;;-0.67;100.00;97653.09;4998080;28;20057;-73
2020/12/29 04:37:27;;;;;;;37.33;20.33;;;;;;;-0.61;100.00;97659.88;4996772;28;20034;-73
2020/12/29 04:39:53;;;;;;;38.20;22.10;;;;;;;-0.59;100.00;97658.09;5001515;28;20053;-73
2020/12/29 04:42:20;;;;;;;41.93;19.93;;;;;;;-0.57;100.00;97658.91;5001044;28;20042;-73
2020/12/29 04:44:46;;;;;;;41.53;21.03;;;;;;;-0.54;100.00;97661.44;4997728;28;20073;-73
2020/12/29 04:47:13;;;;;;;45.00;22.67;;;;;;;-0.53;100.00;97670.06;5001531;28;20041;-73
2020/12/29 04:49:39;;;;;;;42.63;22.83;;;;;;;-0.51;100.00;97668.28;4991075;28;20082;-73
2020/12/29 04:52:08;;;;;;;44.60;22.63;;;;;;;-0.52;100.00;97672.59;4988920;28;20515;-73
2020/12/29 04:54:38;;;;;;;43.07;21.97;;;;;;;-0.52;100.00;97667.41;4992530;28;20042;-73
2020/12/29 04:57:06;;;;;;;40.33;21.10;;;;;;;-0.49;100.00;97656.16;4963558;28;20395;-73
2020/12/29 04:59:33;;;;;;;43.13;22.40;;;;;;;-0.50;100.00;97663.06;4993267;28;20120;-72
2020/12/29 05:02:01;;;;;;;42.63;22.37;;;;;;;-0.48;100.00;97668.22;4975356;28;20050;-74
2020/12/29 05:04:30;;;;;;;41.17;20.90;;;;;;;-0.43;100.00;97668.94;4995798;28;20065;-73
2020/12/29 05:06:57;;;;;;;37.83;20.77;;;;;;;-0.43;100.00;97681.91;4999834;28;20045;-73
2020/12/29 05:09:24;;;;;;;46.20;23.80;;;;;;;-0.44;100.00;97677.59;4993167;28;20080;-73
2020/12/29 05:11:51;;;;;;;40.20;22.13;;;;;;;-0.42;100.00;97665.44;4998341;28;20096;-73
2020/12/29 05:14:21;;;;;;;39.07;21.23;;;;;;;-0.42;100.00;97681.91;4995715;28;20096;-73
2020/12/29 05:16:48;;;;;;;42.93;21.40;;;;;;;-0.42;100.00;97678.41;4997027;28;20034;-73
2020/12/29 05:19:16;;;;;;;33.93;20.00;;;;;;;-0.40;100.00;97676.66;4989327;28;20038;-73
2020/12/29 05:21:43;;;;;;;39.70;20.60;;;;;;;-0.39;100.00;97683.56;4994517;28;20048;-73
2020/12/29 05:24:14;;;;;;;41.97;21.53;;;;;;;-0.40;100.00;97687.88;4984594;28;20691;-73
2020/12/29 05:26:42;;;;;;;37.50;18.63;;;;;;;-0.39;100.00;97696.53;5001604;28;20088;-73
2020/12/29 05:29:11;;;;;;;39.63;20.80;;;;;;;-0.38;100.00;97695.63;4994477;28;20089;-72
2020/12/29 05:31:39;;;;;;;45.60;22.70;;;;;;;-0.38;100.00;97695.63;4993604;28;20042;-73
2020/12/29 05:34:06;;;;;;;45.67;22.57;;;;;;;-0.36;100.00;97701.63;4979782;28;20038;-72
2020/12/29 05:36:37;;;;;;;37.17;20.27;;;;;;;-0.36;100.00;97704.22;5001820;28;20042;-73
2020/12/29 05:39:08;;;;;;;40.30;20.73;;;;;;;-0.33;100.00;97709.34;5008516;28;20663;-73
2020/12/29 05:41:42;;;;;;;41.93;23.33;;;;;;;-0.34;100.00;97705.03;5000746;28;20046;-73
2020/12/29 05:44:14;;;;;;;42.83;21.58;;;;;;;-0.32;100.00;97706.72;4993080;28;20053;-73
2020/12/29 05:46:44;;;;;;;40.87;21.83;;;;;;;-0.29;100.00;97727.38;4998395;28;20038;-73
2020/12/29 05:49:10;;;;;;;47.20;22.63;;;;;;;-0.29;100.00;97723.94;5004219;28;20026;-73
2020/12/29 05:51:37;;;;;;;40.13;21.13;;;;;;;-0.28;100.00;97734.25;4999395;28;20069;-73
2020/12/29 05:54:04;;;;;;;45.03;21.90;;;;;;;-0.25;100.00;97728.19;5005384;28;20053;-72
2020/12/29 05:56:32;;;;;;;42.70;22.03;;;;;;;-0.25;100.00;97737.66;5003625;28;20041;-72
2020/12/29 05:59:00;;;;;;;41.93;20.33;;;;;;;-0.26;100.00;97744.59;4990604;28;20101;-73
2020/12/29 06:01:40;;;;;;;44.30;23.23;;;;;;;-0.27;100.00;97748.09;5005499;28;20108;-73
2020/12/29 06:04:07;;;;;;;40.97;21.93;;;;;;;-0.27;100.00;97761.06;4996317;28;20084;-72
2020/12/29 06:06:35;;;;;;;47.07;23.50;;;;;;;-0.26;100.00;97767.94;5004888;28;20487;-73
2020/12/29 06:09:07;;;;;;;44.73;22.93;;;;;;;-0.25;100.00;97777.47;4996816;28;20038;-73
2020/12/29 06:11:39;;;;;;;42.63;22.30;;;;;;;-0.23;100.00;97787.81;4992654;28;20041;-73
2020/12/29 06:14:16;;;;;;;40.77;20.47;;;;;;;-0.21;100.00;97786.00;4998570;28;20093;-73
2020/12/29 06:16:43;;;;;;;43.83;23.40;;;;;;;-0.21;100.00;97779.09;4992728;28;20050;-73
2020/12/29 06:19:28;;;;;;;45.40;25.20;;;;;;;-0.20;100.00;97787.72;4992723;28;20062;-73
2020/12/29 06:22:05;;;;;;;42.97;21.40;;;;;;;-0.20;100.00;97796.34;4997408;28;20057;-73
2020/12/29 06:24:33;;;;;;;43.50;22.40;;;;;;;-0.19;100.00;97795.47;4994420;28;20089;-73
2020/12/29 06:27:01;;;;;;;44.23;23.03;;;;;;;-0.19;100.00;97800.66;5000049;28;20042;-73
2020/12/29 06:29:41;;;;;;;41.63;23.10;;;;;;;-0.18;100.00;97802.34;4994554;28;20097;-73
2020/12/29 06:32:14;;;;;;;42.50;22.70;;;;;;;-0.17;100.00;97795.41;5001563;28;20034;-73
2020/12/29 06:34:42;;;;;;;37.33;19.92;;;;;;;-0.16;100.00;97799.75;5003459;28;20037;-73
2020/12/29 06:37:26;;;;;;;45.20;23.27;;;;;;;-0.16;100.00;97792.81;4994714;28;20039;-73
2020/12/29 06:39:56;;;;;;;43.77;22.80;;;;;;;-0.15;100.00;97794.53;4988514;28;20440;-73
2020/12/29 06:42:23;;;;;;;44.37;22.97;;;;;;;-0.14;100.00;97793.63;4995431;28;20061;-73
2020/12/29 06:44:55;;;;;;;44.07;24.50;;;;;;;-0.12;100.00;97807.41;4997286;28;20082;-73
2020/12/29 06:47:23;;;;;;;44.00;23.57;;;;;;;-0.12;100.00;97806.56;5002477;28;20148;-73
2020/12/29 06:49:50;;;;;;;37.60;20.73;;;;;;;-0.11;100.00;97798.72;4999273;28;20088;-73
2020/12/29 06:52:18;;;;;;;46.07;23.43;;;;;;;-0.09;100.00;97803.88;4987031;28;20508;-73
2020/12/29 06:54:49;;;;;;;42.03;22.67;;;;;;;-0.10;100.00;97804.78;5001956;28;20041;-73
2020/12/29 06:57:15;;;;;;;39.27;21.87;;;;;;;-0.08;100.00;97809.06;4993057;28;20125;-73
2020/12/29 06:59:42;;;;;;;41.07;22.07;;;;;;;-0.06;100.00;97806.41;4992257;28;20038;-73
2020/12/29 07:02:17;;;;;;;41.57;21.83;;;;;;;-0.06;100.00;97803.81;4994121;28;20046;-73
2020/12/29 07:04:50;;;;;;;43.73;23.47;;;;;;;-0.02;100.00;97797.66;4999467;28;20541;-73
2020/12/29 07:07:32;;;;;;;38.22;21.33;;;;;;;-0.06;100.00;97804.69;4997953;28;20093;-73
2020/12/29 07:10:12;;;;;;;42.23;20.90;;;;;;;-0.06;100.00;97812.47;4997702;28;20037;-73
2020/12/29 07:12:42;;;;;;;34.80;18.47;;;;;;;-0.07;100.00;97813.34;5000411;28;20127;-73
2020/12/29 07:15:08;;;;;;;36.53;18.63;;;;;;;-0.09;100.00;97809.91;4997539;28;20035;-73
2020/12/29 07:17:35;;;;;;;35.77;18.60;;;;;;;-0.10;100.00;97820.34;4983956;28;20080;-72
2020/12/29 07:20:12;;;;;;;35.67;19.53;;;;;;;-0.14;100.00;97829.94;5001840;28;20405;-73
2020/12/29 07:22:38;;;;;;;36.93;19.40;;;;;;;-0.14;100.00;97836.88;4983937;28;20301;-73
2020/12/29 07:25:04;;;;;;;35.87;20.50;;;;;;;-0.15;100.00;97836.03;4994070;28;20505;-73
2020/12/29 07:27:31;;;;;;;40.00;21.13;;;;;;;-0.11;100.00;97861.00;4994208;28;20046;-73
2020/12/29 07:29:58;;;;;;;43.10;23.47;;;;;;;-0.07;100.00;97854.88;4986377;28;20096;-73
2020/12/29 07:32:25;;;;;;;40.80;21.87;;;;;;;-0.06;100.00;97859.19;4994875;28;20062;-73
2020/12/29 07:34:52;;;;;;;38.87;22.27;;;;;;;-0.05;100.00;97854.84;4990152;28;20529;-73
2020/12/29 07:37:19;;;;;;;41.93;21.73;;;;;;;-0.03;100.00;97856.50;4993815;28;20043;-73
2020/12/29 07:39:46;;;;;;;39.00;21.27;;;;;;;0.00;100.00;97858.19;4985339;28;20046;-72
2020/12/29 07:42:13;;;;;;;37.27;20.43;;;;;;;0.01;100.00;97857.31;4993513;28;20061;-72
2020/12/29 07:44:43;;;;;;;42.77;22.70;;;;;;;0.01;100.00;97859.91;4989226;28;20494;-72
2020/12/29 07:47:10;;;;;;;37.30;19.30;;;;;;;-0.02;100.00;97859.94;4991687;28;20050;-72
2020/12/29 07:49:37;;;;;;;34.67;19.30;;;;;;;-0.07;100.00;97854.88;4974405;28;20372;-72
2020/12/29 07:52:03;;;;;;;38.00;18.87;;;;;;;-0.14;100.00;97855.91;4997827;28;20046;-72
2020/12/29 07:54:29;;;;;;;30.87;17.47;;;;;;;-0.22;100.00;97855.22;5002669;28;20100;-71
2020/12/29 07:56:55;;;;;;;34.10;18.60;;;;;;;-0.29;100.00;97851.91;4991344;28;20050;-71
2020/12/29 07:59:21;;;;;;;31.53;19.43;;;;;;;-0.33;100.00;97849.41;4992588;28;20470;-71
2020/12/29 08:01:54;;;;;;;31.03;17.30;;;;;;;-0.36;100.00;97852.06;4983593;28;20105;-71
2020/12/29 08:04:31;;;;;;;37.67;20.10;;;;;;;-0.34;100.00;97858.06;4997243;28;20066;-71
2020/12/29 08:06:59;;;;;;;33.03;18.23;;;;;;;-0.34;100.00;97863.25;4995833;28;20456;-72
2020/12/29 08:09:25;;;;;;;35.93;18.00;;;;;;;-0.35;100.00;97853.75;4997773;28;20034;-72
2020/12/29 08:11:51;;;;;;;41.47;21.53;;;;;;;-0.35;100.00;97871.91;5003108;28;20577;-72
2020/12/29 08:14:18;;;;;;;37.70;19.93;;;;;;;-0.36;100.00;97876.25;4997714;28;20513;-72
2020/12/29 08:16:44;;;;;;;39.17;20.60;;;;;;;-0.36;100.00;97872.81;5008198;28;20113;-71
2020/12/29 08:19:10;;;;;;;37.27;20.63;;;;;;;-0.39;100.00;97881.53;4994601;28;20043;-71
2020/12/29 08:21:38;;;;;;;36.07;19.07;;;;;;;-0.43;100.00;97871.22;4987818;28;20432;-72
2020/12/29 08:24:05;;;;;;;32.93;18.13;;;;;;;-0.46;100.00;97879.09;4991306;28;20076;-71
2020/12/29 08:26:33;;;;;;;41.00;21.57;;;;;;;-0.50;100.00;97883.50;4996513;28;20517;-72
2020/12/29 08:28:59;;;;;;;39.83;20.73;;;;;;;-0.52;100.00;97894.75;5007830;28;20053;-71
2020/12/29 08:31:27;;;;;;;43.53;20.73;;;;;;;-0.54;100.00;97899.13;4980446;28;20499;-71
2020/12/29 08:33:54;;;;;;;35.73;19.57;;;;;;;-0.58;100.00;97912.19;4990594;28;20521;-71
2020/12/29 08:36:23;;;;;;;33.83;17.83;;;;;;;-0.61;100.00;97917.41;4992620;28;20383;-72
2020/12/29 08:39:11;;;;;;;33.23;18.23;;;;;;;-0.64;100.00;97924.41;5012517;28;20057;-71
2020/12/29 08:41:39;;;;;;;31.43;16.53;;;;;;;-0.70;100.00;97935.72;5000399;28;20046;-71
2020/12/29 08:44:06;;;;;;;34.87;18.67;;;;;;;-0.71;100.00;97941.81;4980291;28;20539;-71
2020/12/29 08:46:34;;;;;;;32.07;17.67;;;;;;;-0.68;100.00;97949.50;4995249;28;20118;-71
2020/12/29 08:49:02;;;;;;;34.17;19.57;;;;;;;-0.65;100.00;97957.25;4989406;28;20122;-71
2020/12/29 08:51:30;;;;;;;138.37;66.20;;;;;;;-0.62;100.00;97966.69;5005913;28;20063;-72
2020/12/29 08:54:12;;;;;;;176.87;82.87;;;;;;;-0.55;100.00;97968.28;4996789;28;20120;-72
2020/12/29 08:56:38;;;;;;;78.90;42.37;;;;;;;-0.46;100.00;97964.66;5002430;28;20038;-72
2020/12/29 08:59:12;;;;;;;57.87;31.73;;;;;;;-0.32;100.00;97970.44;5003091;28;20462;-71
2020/12/29 09:01:43;;;;;;;42.35;23.73;;;;;;;-0.17;100.00;97974.44;4993856;28;20049;-71
2020/12/29 09:04:40;;;;;;;39.47;21.13;;;;;;;-0.03;100.00;97988.84;4998504;28;20403;-71
2020/12/29 09:07:11;;;;;;;37.47;20.60;;;;;;;0.08;100.00;97996.41;5007717;28;20416;-71
2020/12/29 09:09:39;;;;;;;36.23;20.13;;;;;;;0.17;100.00;97997.94;5001238;28;20474;-71
2020/12/29 09:12:09;;;;;;;41.80;23.33;;;;;;;0.21;100.00;98002.22;5002885;28;20443;-71
2020/12/29 09:14:37;;;;;;;34.53;20.00;;;;;;;0.27;100.00;98004.69;5000757;28;20034;-71
2020/12/29 09:17:07;;;;;;;36.03;19.87;;;;;;;0.26;100.00;97998.63;5002364;28;20049;-71
2020/12/29 09:19:34;;;;;;;38.27;18.27;;;;;;;0.42;100.00;98011.25;5000489;28;20038;-71
2020/12/29 09:22:04;;;;;;;40.47;20.40;;;;;;;0.59;100.00;98011.75;5007155;28;20139;-71
2020/12/29 09:24:31;;;;;;;34.60;19.63;;;;;;;0.78;100.00;98005.22;5008106;28;20034;-71
2020/12/29 09:26:57;;;;;;;34.67;18.53;;;;;;;0.94;100.00;98010.06;4966310;28;20483;-71
2020/12/29 09:29:27;;;;;;;35.93;18.23;;;;;;;1.38;100.00;98014.16;4994364;28;20042;-71
2020/12/29 09:31:55;;;;;;;31.63;16.80;;;;;;;1.91;100.00;98014.44;4992836;28;20073;-71
2020/12/29 09:34:21;;;;;;;29.20;15.67;;;;;;;2.23;100.00;98029.16;4998206;28;20575;-72
2020/12/29 09:36:47;;;;;;;27.27;14.97;;;;;;;2.26;100.00;98029.91;5004513;28;20133;-71
2020/12/29 09:39:14;;;;;;;30.43;15.83;;;;;;;2.46;100.00;98024.13;4994049;28;20633;-72
2020/12/29 09:41:40;;;;;;;25.43;14.80;;;;;;;2.95;100.00;98040.00;4992902;28;20038;-71
2020/12/29 09:44:06;;;;;;;26.37;14.63;;;;;;;3.20;100.00;98033.09;5000286;28;20037;-72
2020/12/29 09:46:39;;;;;;;25.23;15.13;;;;;;;3.25;98.83;98039.00;4985886;28;20085;-72
2020/12/29 09:49:05;;;;;;;26.77;14.77;;;;;;;3.28;96.25;98038.91;4994678;28;20038;-71
2020/12/29 09:51:32;;;;;;;23.07;13.57;;;;;;;3.33;95.56;98042.22;4999704;28;20042;-72
2020/12/29 09:53:58;;;;;;;24.60;14.70;;;;;;;3.26;94.57;98034.63;4995599;28;20042;-71
2020/12/29 09:56:25;;;;;;;20.80;14.07;;;;;;;3.33;95.10;98034.38;4993922;28;20039;-72
2020/12/29 09:58:51;;;;;;;22.47;14.93;;;;;;;3.35;94.84;98043.00;4993253;28;20500;-72
2020/12/29 10:01:17;;;;;;;25.33;15.63;;;;;;;3.03;93.02;98044.09;5005112;28;20107;-72
2020/12/29 10:03:43;;;;;;;21.03;13.83;;;;;;;3.12;94.33;98039.47;4992673;28;20045;-71
2020/12/29 10:06:10;;;;;;;22.77;14.30;;;;;;;3.12;94.43;98048.16;5003004;28;20547;-71
2020/12/29 10:08:37;;;;;;;23.83;13.83;;;;;;;3.05;94.04;98052.69;4978515;28;20042;-71
2020/12/29 10:11:04;;;;;;;19.60;13.27;;;;;;;2.85;94.42;98038.56;4997242;28;20611;-72
2020/12/29 10:13:30;;;;;;;24.03;14.53;;;;;;;2.77;95.50;98047.47;4999961;28;20066;-71
2020/12/29 10:15:56;;;;;;;23.60;14.10;;;;;;;2.68;95.14;98046.91;5001091;28;20093;-72
2020/12/29 10:18:24;;;;;;;22.93;14.30;;;;;;;2.50;96.13;98043.09;4997398;28;20103;-71
2020/12/29 10:20:53;;;;;;;30.47;15.60;;;;;;;2.47;96.78;98056.25;4993241;28;20038;-72
2020/12/29 10:23:19;;;;;;;22.30;13.97;;;;;;;2.44;97.12;98056.34;4995951;28;20069;-71
2020/12/29 10:25:46;;;;;;;22.07;14.17;;;;;;;2.43;97.51;98063.28;4979850;28;20108;-71
2020/12/29 10:28:12;;;;;;;27.73;15.33;;;;;;;2.35;97.28;98059.19;4996365;28;20065;-72
2020/12/29 10:30:38;;;;;;;25.33;15.03;;;;;;;2.32;98.18;98064.50;4995106;28;20545;-71
2020/12/29 10:33:04;;;;;;;25.07;14.53;;;;;;;2.26;98.31;98060.31;5009904;28;20096;-71
2020/12/29 10:35:31;;;;;;;21.47;13.13;;;;;;;2.38;98.12;98062.56;5003988;28;20068;-71
2020/12/29 10:37:57;;;;;;;21.17;13.63;;;;;;;2.65;97.51;98063.50;4999298;28;20107;-72
2020/12/29 10:40:23;;;;;;;24.40;14.20;;;;;;;2.81;95.61;98066.50;4994958;28;20070;-72
2020/12/29 10:42:50;;;;;;;24.63;15.13;;;;;;;2.96;95.62;98079.06;4995409;28;20034;-73
2020/12/29 10:45:16;;;;;;;25.03;14.33;;;;;;;3.27;94.66;98076.31;4993560;28;20084;-72
2020/12/29 10:47:42;;;;;;;23.13;14.50;;;;;;;3.40;91.88;98074.19;4993234;28;20125;-72
2020/12/29 10:50:08;;;;;;;24.17;14.87;;;;;;;3.53;91.35;98070.28;4993756;28;20518;-73
2020/12/29 10:52:35;;;;;;;21.60;12.97;;;;;;;3.95;90.12;98070.56;4988634;28;20041;-73
2020/12/29 10:55:01;;;;;;;24.63;14.63;;;;;;;4.18;89.42;98072.31;5004410;28;20054;-73
2020/12/29 10:57:27;;;;;;;19.50;12.77;;;;;;;4.54;87.86;98079.75;4998248;28;20066;-73
2020/12/29 10:59:54;;;;;;;22.87;14.13;;;;;;;4.66;87.06;98076.66;4998146;28;20480;-73
2020/12/29 11:02:20;;;;;;;21.20;12.83;;;;;;;5.09;87.09;98078.47;4999324;28;20132;-73
2020/12/29 11:04:46;;;;;;;19.87;13.93;;;;;;;5.51;84.13;98080.25;4999609;28;20097;-74
2020/12/29 11:07:12;;;;;;;20.50;13.87;;;;;;;6.43;81.25;98078.94;4995588;28;20034;-73
2020/12/29 11:09:38;;;;;;;22.00;13.43;;;;;;;7.48;78.06;98087.13;4984799;28;20065;-73
2020/12/29 11:12:04;;;;;;;141.43;58.20;;;;;;;8.34;73.65;98070.47;5006304;28;20039;-73
2020/12/29 11:14:30;;;;;;;40.38;19.85;;;;;;;9.00;71.68;98070.41;4999852;28;20062;-73
2020/12/29 11:16:56;;;;;;;22.42;14.48;;;;;;;8.79;66.51;98078.63;4999043;28;20669;-73